createdAt,value
2023-02-05T00:00:24.060Z,15.88
2023-02-05T00:03:16.563Z,5.03
2023-02-05T00:05:49.445Z,3.30
2023-02-05T00:08:21.965Z,3.05
2023-02-05T00:10:54.908Z,8.13
2023-02-05T00:13:27.711Z,2.42
2023-02-05T00:16:00.618Z,4.80
2023-02-05T00:18:33.164Z,5.20
2023-02-05T00:21:06.681Z,4.63
2023-02-05T00:23:39.423Z,3.30
2023-02-05T00:26:14.502Z,8.02
2023-02-05T00:28:49.161Z,3.45
2023-02-05T00:31:27.312Z,3.15
2023-02-05T00:34:03.022Z,3.55
2023-02-05T00:36:37.605Z,6.25
2023-02-05T00:39:11.703Z,5.75
2023-02-05T00:41:45.316Z,6.25
2023-02-05T00:44:17.956Z,1.60
2023-02-05T00:46:50.898Z,1.38
2023-02-05T00:49:23.506Z,3.55
2023-02-05T00:51:56.802Z,2.72
2023-02-05T00:54:29.347Z,3.25
2023-02-05T00:57:02.318Z,4.00
2023-02-05T00:59:35.392Z,3.17
2023-02-05T01:02:10.919Z,1.55
2023-02-05T01:04:43.551Z,5.70
2023-02-05T01:07:16.798Z,5.90
2023-02-05T01:09:49.279Z,4.07
2023-02-05T01:12:22.135Z,3.90
2023-02-05T01:14:54.793Z,5.57
2023-02-05T01:17:28.101Z,2.80
2023-02-05T01:20:00.679Z,3.63
2023-02-05T01:22:33.710Z,2.78
2023-02-05T01:25:13.110Z,3.20
2023-02-05T01:27:46.165Z,4.05
2023-02-05T01:30:19.896Z,5.22
2023-02-05T01:32:52.766Z,9.27
2023-02-05T01:35:25.381Z,8.85
2023-02-05T01:37:58.281Z,2.65
2023-02-05T01:40:30.880Z,5.07
2023-02-05T01:43:03.840Z,2.65
2023-02-05T01:45:36.559Z,4.20
2023-02-05T01:48:09.996Z,9.82
2023-02-05T01:50:47.272Z,4.47
2023-02-05T01:53:23.572Z,3.90
2023-02-05T01:55:58.456Z,7.10
2023-02-05T01:58:34.298Z,3.58
2023-02-05T02:01:07.142Z,3.38
2023-02-05T02:03:40.895Z,7.20
2023-02-05T02:06:15.073Z,2.72
2023-02-05T02:08:48.089Z,5.15
2023-02-05T02:11:24.366Z,2.88
2023-02-05T02:13:59.911Z,5.63
2023-02-05T02:16:33.495Z,4.78
2023-02-05T02:19:10.559Z,2.58
2023-02-05T02:21:52.900Z,5.07
2023-02-05T02:24:44.737Z,17.73
2023-02-05T02:27:27.439Z,7.95
2023-02-05T02:30:06.710Z,2.63
2023-02-05T02:32:41.879Z,3.47
2023-02-05T02:35:22.849Z,4.20
2023-02-05T02:37:58.894Z,7.57
2023-02-05T02:40:36.483Z,3.80
2023-02-05T02:43:19.581Z,11.90
2023-02-05T02:46:04.889Z,4.75
2023-02-05T02:48:40.111Z,2.53
2023-02-05T02:51:14.025Z,3.42
2023-02-05T02:53:48.235Z,7.82
2023-02-05T02:56:21.799Z,4.90
2023-02-05T02:58:59.786Z,4.43
2023-02-05T03:01:35.639Z,2.67
2023-02-05T03:04:18.073Z,2.38
2023-02-05T03:06:52.732Z,1.73
2023-02-05T03:09:40.004Z,7.18
2023-02-05T03:12:13.417Z,2.80
2023-02-05T03:14:46.417Z,6.78
2023-02-05T03:17:20.155Z,6.53
2023-02-05T03:19:58.230Z,12.27
2023-02-05T03:22:32.107Z,3.95
2023-02-05T03:25:05.556Z,5.82
2023-02-05T03:27:39.309Z,10.32
2023-02-05T03:30:12.744Z,4.70
2023-02-05T03:32:52.199Z,4.55
2023-02-05T03:35:31.741Z,4.85
2023-02-05T03:38:14.376Z,3.35
2023-02-05T03:43:32.497Z,3.72
2023-02-05T03:46:18.430Z,5.55
2023-02-05T03:48:52.011Z,4.05
2023-02-05T03:51:28.679Z,3.50
2023-02-05T03:54:11.996Z,7.00
2023-02-05T03:57:01.652Z,4.60
2023-02-05T03:59:38.086Z,3.47
2023-02-05T04:02:13.331Z,6.22
2023-02-05T04:05:00.815Z,5.15
2023-02-05T04:07:34.705Z,2.97
2023-02-05T04:10:08.958Z,4.10
2023-02-05T04:12:41.502Z,4.35
2023-02-05T04:15:14.587Z,7.55
2023-02-05T04:17:51.592Z,6.88
2023-02-05T04:20:25.236Z,1.45
2023-02-05T04:22:58.175Z,3.42
2023-02-05T04:25:32.333Z,2.40
2023-02-05T04:28:06.847Z,2.35
2023-02-05T04:30:40.484Z,5.57
2023-02-05T04:33:23.714Z,1.15
2023-02-05T04:36:00.240Z,3.13
2023-02-05T04:38:32.855Z,4.25
2023-02-05T04:41:08.385Z,1.90
2023-02-05T04:43:40.971Z,2.72
2023-02-05T04:46:13.906Z,1.88
2023-02-05T04:48:46.372Z,2.40
2023-02-05T04:51:19.252Z,3.20
2023-02-05T04:53:51.956Z,1.08
2023-02-05T04:56:24.808Z,5.82
2023-02-05T04:58:57.884Z,3.22
2023-02-05T05:01:34.439Z,2.83
2023-02-05T05:04:13.833Z,4.40
2023-02-05T05:06:51.140Z,2.90
2023-02-05T05:09:24.507Z,1.90
2023-02-05T05:11:57.371Z,2.13
2023-02-05T05:14:29.936Z,3.85
2023-02-05T05:17:02.758Z,10.38
2023-02-05T05:19:35.305Z,2.03
2023-02-05T05:22:08.118Z,2.40
2023-02-05T05:24:40.663Z,5.90
2023-02-05T05:27:13.590Z,3.90
2023-02-05T05:29:46.869Z,4.03
2023-02-05T05:32:19.925Z,1.55
2023-02-05T05:34:52.510Z,5.00
2023-02-05T05:37:25.507Z,4.43
2023-02-05T05:40:16.807Z,2.75
2023-02-05T05:45:40.481Z,2.13
2023-02-05T05:48:13.343Z,3.92
2023-02-05T05:50:46.866Z,4.55
2023-02-05T05:53:19.747Z,3.40
2023-02-05T05:55:52.268Z,4.20
2023-02-05T05:58:25.211Z,1.35
2023-02-05T06:00:57.774Z,4.97
2023-02-05T06:03:30.883Z,3.60
2023-02-05T06:06:04.602Z,1.58
2023-02-05T06:08:37.800Z,5.10
2023-02-05T06:11:10.307Z,5.90
2023-02-05T06:13:43.324Z,4.32
2023-02-05T06:16:15.855Z,7.95
2023-02-05T06:18:48.760Z,2.58
2023-02-05T06:21:21.489Z,2.33
2023-02-05T06:23:55.736Z,1.58
2023-02-05T06:26:32.304Z,2.83
2023-02-05T06:29:05.377Z,1.75
2023-02-05T06:31:38.067Z,2.17
2023-02-05T06:34:11.110Z,7.63
2023-02-05T06:36:43.651Z,9.75
2023-02-05T06:39:16.622Z,2.00
2023-02-05T06:41:49.468Z,3.60
2023-02-05T06:44:22.572Z,4.40
2023-02-05T06:46:55.108Z,3.17
2023-02-05T06:49:28.133Z,11.02
2023-02-05T06:52:00.676Z,3.90
2023-02-05T06:54:33.602Z,3.17
2023-02-05T06:57:06.138Z,7.15
2023-02-05T06:59:39.021Z,4.57
2023-02-05T07:02:13.807Z,8.20
2023-02-05T07:04:46.860Z,9.13
2023-02-05T07:07:19.420Z,5.13
2023-02-05T07:09:52.365Z,3.50
2023-02-05T07:12:25.396Z,28.75
2023-02-05T07:14:58.370Z,4.10
2023-02-05T07:17:31.041Z,21.63
2023-02-05T07:20:04.054Z,74.03
2023-02-05T07:22:36.624Z,75.57
2023-02-05T07:25:09.604Z,53.50
2023-02-05T07:27:42.243Z,72.07
2023-02-05T07:30:15.387Z,41.08
2023-02-05T07:32:47.969Z,35.25
2023-02-05T07:35:20.936Z,5.93
2023-02-05T07:37:53.372Z,3.63
2023-02-05T07:40:26.210Z,8.38
2023-02-05T07:42:58.717Z,8.85
2023-02-05T07:45:32.166Z,5.30
2023-02-05T07:48:05.115Z,9.32
2023-02-05T07:50:38.016Z,9.88
2023-02-05T07:53:10.557Z,4.70
2023-02-05T07:55:43.402Z,4.78
2023-02-05T07:58:16.893Z,3.65
2023-02-05T08:00:49.895Z,4.93
2023-02-05T08:03:23.410Z,5.32
2023-02-05T08:05:56.418Z,7.10
2023-02-05T08:08:28.847Z,4.97
2023-02-05T08:11:05.784Z,6.93
2023-02-05T08:13:38.466Z,4.90
2023-02-05T08:16:11.782Z,3.67
2023-02-05T08:18:48.511Z,8.02
2023-02-05T08:21:22.209Z,4.53
2023-02-05T08:23:57.527Z,11.38
2023-02-05T08:26:30.380Z,6.40
2023-02-05T08:29:03.208Z,7.00
2023-02-05T08:31:36.881Z,6.53
2023-02-05T08:34:09.464Z,5.50
2023-02-05T08:36:42.363Z,4.68
2023-02-05T08:39:14.855Z,3.45
2023-02-05T08:41:47.744Z,2.13
2023-02-05T08:44:20.420Z,2.75
2023-02-05T08:46:53.308Z,5.20
2023-02-05T08:49:26.414Z,5.95
2023-02-05T08:51:59.251Z,6.97
2023-02-05T08:54:31.845Z,10.82
2023-02-05T08:57:04.717Z,17.20
2023-02-05T08:59:37.721Z,3.85
2023-02-05T09:02:14.179Z,2.80
2023-02-05T09:04:46.796Z,4.20
2023-02-05T09:07:19.656Z,5.13
2023-02-05T09:09:52.503Z,7.05
2023-02-05T09:12:25.365Z,18.20
2023-02-05T09:14:58.143Z,14.13
2023-02-05T09:17:49.131Z,19.48
2023-02-05T09:20:22.387Z,14.75
2023-02-05T09:22:55.531Z,10.80
2023-02-05T09:25:30.419Z,11.70
2023-02-05T09:28:03.668Z,8.27
2023-02-05T09:30:42.507Z,16.67
2023-02-05T09:33:15.458Z,3.05
2023-02-05T09:35:47.927Z,8.30
2023-02-05T09:38:20.769Z,3.05
2023-02-05T09:41:00.768Z,32.95
2023-02-05T09:43:52.859Z,5.82
2023-02-05T09:46:40.750Z,5.60
2023-02-05T09:49:13.573Z,3.50
2023-02-05T09:51:47.999Z,4.68
2023-02-05T09:54:28.827Z,6.55
2023-02-05T09:57:05.073Z,3.63
2023-02-05T09:59:42.227Z,6.60
2023-02-05T10:02:23.641Z,10.43
2023-02-05T10:04:56.710Z,6.18
2023-02-05T10:07:29.225Z,3.53
2023-02-05T10:10:16.295Z,5.95
2023-02-05T10:12:57.775Z,3.42
2023-02-05T10:15:30.660Z,9.63
2023-02-05T10:18:21.670Z,4.32
2023-02-05T10:21:00.774Z,5.68
2023-02-05T10:23:46.180Z,6.28
2023-02-05T10:26:19.107Z,3.60
2023-02-05T10:29:12.236Z,3.00
2023-02-05T10:31:53.369Z,4.75
2023-02-05T10:34:41.160Z,5.77
2023-02-05T10:37:18.898Z,3.75
2023-02-05T10:39:51.794Z,2.05
2023-02-05T10:42:29.114Z,4.63
2023-02-05T10:45:13.167Z,3.47
2023-02-05T10:47:52.117Z,7.35
2023-02-05T10:50:30.416Z,5.07
2023-02-05T10:53:03.241Z,4.38
2023-02-05T10:55:36.860Z,6.97
2023-02-05T10:58:21.657Z,1.98
2023-02-05T11:00:54.534Z,2.28
2023-02-05T11:03:27.526Z,6.80
2023-02-05T11:06:00.006Z,2.83
2023-02-05T11:08:35.688Z,2.80
2023-02-05T11:11:16.725Z,3.95
2023-02-05T11:13:54.698Z,3.05
2023-02-05T11:16:37.917Z,4.47
2023-02-05T11:19:24.346Z,7.78
2023-02-05T11:21:56.944Z,3.15
2023-02-05T11:24:29.969Z,2.38
2023-02-05T11:27:19.969Z,2.03
2023-02-05T11:29:53.596Z,1.27
2023-02-05T11:32:37.037Z,3.33
2023-02-05T11:35:10.092Z,2.40
2023-02-05T11:37:42.624Z,3.20
2023-02-05T11:40:29.215Z,3.50
2023-02-05T11:43:04.543Z,2.40
2023-02-05T11:45:39.632Z,3.88
2023-02-05T11:48:25.255Z,4.45
2023-02-05T11:50:58.220Z,11.98
2023-02-05T11:53:33.323Z,18.75
2023-02-05T11:56:12.329Z,20.35
2023-02-05T11:58:57.783Z,6.93
2023-02-05T12:01:34.111Z,3.25
2023-02-05T12:04:12.744Z,2.75
2023-02-05T12:06:59.577Z,5.65
2023-02-05T12:09:32.222Z,3.85
2023-02-05T12:12:06.872Z,2.20
2023-02-05T12:14:44.627Z,3.47
2023-02-05T12:17:17.586Z,2.17
2023-02-05T12:20:08.988Z,2.42
2023-02-05T12:23:00.485Z,5.05
2023-02-05T12:25:37.866Z,2.65
2023-02-05T12:28:32.408Z,2.65
2023-02-05T12:31:10.902Z,3.05
2023-02-05T12:34:15.016Z,5.90
2023-02-05T12:36:59.367Z,1.98
2023-02-05T12:39:38.519Z,5.75
2023-02-05T12:42:12.148Z,2.53
2023-02-05T12:45:02.042Z,2.95
2023-02-05T12:47:53.388Z,4.50
2023-02-05T12:50:26.346Z,2.88
2023-02-05T12:53:04.889Z,3.08
2023-02-05T12:55:46.761Z,6.70
2023-02-05T12:58:20.340Z,1.73
2023-02-05T13:00:54.962Z,4.07
2023-02-05T13:03:28.969Z,6.85
2023-02-05T13:06:05.059Z,2.63
2023-02-05T13:09:03.634Z,4.05
2023-02-05T13:12:05.349Z,4.75
2023-02-05T13:14:44.045Z,3.17
2023-02-05T13:17:22.863Z,6.05
2023-02-05T13:19:59.779Z,2.72
2023-02-05T13:22:54.606Z,3.63
2023-02-05T13:25:52.243Z,4.07
2023-02-05T13:28:43.044Z,4.32
2023-02-05T13:31:27.245Z,4.15
2023-02-05T13:34:05.494Z,4.22
2023-02-05T13:36:56.858Z,3.50
2023-02-05T13:42:26.069Z,3.92
2023-02-05T13:48:03.429Z,4.40
2023-02-05T13:50:49.670Z,4.57
2023-02-05T13:53:28.744Z,3.00
2023-02-05T13:56:04.789Z,5.22
2023-02-05T13:58:58.034Z,4.43
2023-02-05T14:01:40.683Z,5.72
2023-02-05T14:04:16.285Z,11.95
2023-02-05T14:07:00.418Z,3.70
2023-02-05T14:09:38.621Z,4.18
2023-02-05T14:12:13.047Z,4.22
2023-02-05T14:15:05.487Z,4.22
2023-02-05T14:17:38.322Z,2.63
2023-02-05T14:20:22.950Z,3.67
2023-02-05T14:22:58.217Z,5.03
2023-02-05T14:25:39.481Z,8.40
2023-02-05T14:28:15.482Z,8.35
2023-02-05T14:30:51.002Z,6.65
2023-02-05T14:33:37.689Z,9.13
2023-02-05T14:36:19.083Z,7.25
2023-02-05T14:38:57.672Z,3.65
2023-02-05T14:41:31.515Z,9.35
2023-02-05T14:44:04.573Z,5.30
2023-02-05T14:46:43.345Z,8.52
2023-02-05T14:49:26.149Z,12.00
2023-02-05T14:52:00.827Z,8.60
2023-02-05T14:54:43.792Z,6.97
2023-02-05T14:57:25.360Z,7.60
2023-02-05T14:59:58.259Z,6.78
2023-02-05T15:03:07.376Z,15.10
2023-02-05T15:05:41.668Z,3.65
2023-02-05T15:08:34.913Z,5.28
2023-02-05T15:11:10.971Z,9.45
2023-02-05T15:14:03.776Z,4.35
2023-02-05T15:16:38.637Z,11.80
2023-02-05T15:19:11.837Z,20.02
2023-02-05T15:21:47.680Z,8.23
2023-02-05T15:24:21.600Z,9.57
2023-02-05T15:27:02.752Z,13.55
2023-02-05T15:29:42.042Z,6.90
2023-02-05T15:32:17.996Z,6.68
2023-02-05T15:34:52.801Z,6.07
2023-02-05T15:37:30.322Z,7.88
2023-02-05T15:40:21.548Z,9.00
2023-02-05T15:43:12.844Z,2.78
2023-02-05T15:45:45.721Z,6.00
2023-02-05T15:48:25.391Z,9.70
2023-02-05T15:51:00.057Z,9.13
2023-02-05T15:53:35.178Z,8.20
2023-02-05T15:56:22.858Z,8.52
2023-02-05T15:58:58.404Z,69.35
2023-02-05T16:01:37.130Z,68.65
2023-02-05T16:04:17.166Z,47.45
2023-02-05T16:06:49.664Z,48.03
2023-02-05T16:09:24.545Z,59.42
2023-02-05T16:11:57.090Z,46.83
2023-02-05T16:14:30.628Z,30.17
2023-02-05T16:17:09.463Z,41.58
2023-02-05T16:19:48.660Z,50.08
2023-02-05T16:22:26.451Z,31.55
2023-02-05T16:25:01.896Z,26.67
2023-02-05T16:27:45.003Z,27.73
2023-02-05T16:30:24.100Z,24.77
2023-02-05T16:32:58.318Z,20.60
2023-02-05T16:35:34.442Z,27.25
2023-02-05T16:38:13.756Z,16.50
2023-02-05T16:40:48.546Z,33.83
2023-02-05T16:43:40.972Z,35.67
2023-02-05T16:46:14.896Z,33.03
2023-02-05T16:48:47.382Z,20.30
2023-02-05T16:51:26.044Z,21.42
2023-02-05T16:54:00.112Z,33.38
2023-02-05T16:56:36.162Z,29.25
2023-02-05T16:59:16.730Z,23.73
2023-02-05T17:01:50.895Z,47.15
2023-02-05T17:04:27.625Z,24.92
2023-02-05T17:07:01.691Z,41.47
2023-02-05T17:09:35.736Z,51.80
2023-02-05T17:12:27.453Z,66.65
2023-02-05T17:15:00.030Z,51.22
2023-02-05T17:17:32.953Z,50.40
2023-02-05T17:20:18.098Z,51.58
2023-02-05T17:23:05.924Z,48.67
2023-02-05T17:25:40.410Z,42.47
2023-02-05T17:28:15.907Z,45.25
2023-02-05T17:30:49.997Z,42.55
2023-02-05T17:33:24.197Z,32.70
2023-02-05T17:35:57.379Z,26.73
2023-02-05T17:38:30.299Z,24.17
2023-02-05T17:41:20.986Z,25.95
2023-02-05T17:43:53.871Z,21.15
2023-02-05T17:46:26.322Z,26.50
2023-02-05T17:48:59.177Z,18.55
2023-02-05T17:51:31.692Z,32.55
2023-02-05T17:54:04.645Z,25.50
2023-02-05T17:56:38.522Z,29.40
2023-02-05T17:59:15.928Z,79.50
2023-02-05T18:01:48.901Z,69.88
2023-02-05T18:04:21.929Z,73.65
2023-02-05T18:06:54.516Z,49.33
2023-02-05T18:09:27.779Z,70.75
2023-02-05T18:12:00.251Z,52.28
2023-02-05T18:14:33.160Z,39.58
2023-02-05T18:17:05.646Z,47.70
2023-02-05T18:19:38.540Z,89.72
2023-02-05T18:22:11.613Z,56.15
2023-02-05T18:24:44.661Z,38.70
2023-02-05T18:27:17.313Z,35.55
2023-02-05T18:29:50.311Z,46.15
2023-02-05T18:32:22.869Z,39.85
2023-02-05T18:34:55.888Z,46.08
2023-02-05T18:37:28.327Z,44.78
2023-02-05T18:40:01.402Z,37.05
2023-02-05T18:42:34.682Z,43.35
2023-02-05T18:45:07.877Z,49.25
2023-02-05T18:47:40.530Z,36.42
2023-02-05T18:50:13.483Z,51.72
2023-02-05T18:52:46.009Z,66.75
2023-02-05T18:55:19.333Z,42.78
2023-02-05T18:57:52.269Z,58.10
2023-02-05T19:00:25.252Z,43.65
2023-02-05T19:02:58.147Z,45.45
2023-02-05T19:05:31.207Z,29.15
2023-02-05T19:08:05.689Z,38.80
2023-02-05T19:10:39.763Z,29.58
2023-02-05T19:13:12.278Z,31.98
2023-02-05T19:15:45.320Z,33.72
2023-02-05T19:18:18.107Z,39.88
2023-02-05T19:20:50.900Z,43.88
2023-02-05T19:23:23.589Z,42.75
2023-02-05T19:25:56.599Z,44.20
2023-02-05T19:28:30.816Z,23.38
2023-02-05T19:31:06.050Z,17.85
2023-02-05T19:33:39.188Z,19.83
2023-02-05T19:36:12.076Z,30.58
2023-02-05T19:38:44.638Z,26.25
2023-02-05T19:41:18.850Z,29.13
2023-02-05T19:43:52.989Z,32.38
2023-02-05T19:46:27.086Z,35.10
2023-02-05T19:49:01.429Z,32.83
2023-02-05T19:51:34.760Z,21.67
2023-02-05T19:54:07.674Z,30.15
2023-02-05T19:56:41.025Z,26.42
2023-02-05T19:59:13.636Z,36.25
2023-02-05T20:01:46.759Z,33.90
2023-02-05T20:04:22.515Z,43.80
2023-02-05T20:06:57.360Z,44.63
2023-02-05T20:09:32.149Z,29.17
2023-02-05T20:12:05.205Z,32.72
2023-02-05T20:14:38.221Z,29.88
2023-02-05T20:17:16.560Z,52.65
2023-02-05T20:19:49.014Z,28.77
2023-02-05T20:22:22.048Z,34.50
2023-02-05T20:24:54.588Z,74.93
2023-02-05T20:27:27.621Z,62.50
2023-02-05T20:30:18.869Z,29.27
2023-02-05T20:32:51.746Z,59.35
2023-02-05T20:35:24.382Z,92.93
2023-02-05T20:37:57.237Z,53.22
2023-02-05T20:40:29.775Z,70.68
2023-02-05T20:43:05.089Z,41.95
2023-02-05T20:45:37.728Z,20.23
2023-02-05T20:48:10.700Z,28.60
2023-02-05T20:50:43.272Z,46.35
2023-02-05T20:53:16.143Z,45.33
2023-02-05T20:55:51.442Z,47.33
2023-02-05T20:58:24.390Z,47.08
2023-02-05T21:00:57.085Z,37.67
2023-02-05T21:03:30.102Z,41.53
2023-02-05T21:06:02.667Z,41.45
2023-02-05T21:08:38.305Z,37.50
2023-02-05T21:11:11.134Z,26.40
2023-02-05T21:13:45.050Z,36.00
2023-02-05T21:16:18.768Z,52.47
2023-02-05T21:18:52.241Z,35.10
2023-02-05T21:21:28.744Z,32.80
2023-02-05T21:24:03.004Z,95.32
2023-02-05T21:26:37.339Z,83.88
2023-02-05T21:29:11.475Z,61.42
2023-02-05T21:31:46.680Z,161.07
2023-02-05T21:34:22.130Z,158.55
2023-02-05T21:36:55.433Z,223.00
2023-02-05T21:39:28.267Z,121.72
2023-02-05T21:42:00.912Z,96.60
2023-02-05T21:44:33.931Z,74.25
2023-02-05T21:47:07.288Z,110.90
2023-02-05T21:49:40.185Z,122.07
2023-02-05T21:52:12.757Z,112.22
2023-02-05T21:54:49.102Z,132.43
2023-02-05T21:57:22.158Z,93.07
2023-02-05T21:59:55.132Z,89.60
2023-02-05T22:02:27.740Z,79.70
2023-02-05T22:05:00.899Z,57.50
2023-02-05T22:07:33.564Z,51.63
2023-02-05T22:10:06.608Z,74.05
2023-02-05T22:12:39.192Z,95.20
2023-02-05T22:15:13.796Z,60.30
2023-02-05T22:17:46.388Z,59.28
2023-02-05T22:20:19.373Z,87.95
2023-02-05T22:22:51.906Z,105.53
2023-02-05T22:25:24.991Z,73.78
2023-02-05T22:27:57.610Z,89.25
2023-02-05T22:30:30.846Z,84.55
2023-02-05T22:33:03.539Z,77.65
2023-02-05T22:35:37.881Z,54.78
2023-02-05T22:38:10.420Z,69.13
2023-02-05T22:40:43.303Z,55.17
2023-02-05T22:43:15.754Z,52.25
2023-02-05T22:45:48.722Z,50.92
2023-02-05T22:48:21.252Z,66.57
2023-02-05T22:50:54.033Z,53.42
2023-02-05T22:53:26.650Z,65.38
2023-02-05T22:56:03.992Z,67.75
2023-02-05T22:58:38.439Z,90.40
2023-02-05T23:01:12.457Z,83.00
2023-02-05T23:03:47.380Z,112.57
2023-02-05T23:06:22.644Z,91.35
2023-02-05T23:08:56.701Z,76.43
2023-02-05T23:11:30.876Z,64.22
2023-02-05T23:14:04.493Z,57.85
2023-02-05T23:16:39.098Z,73.85
2023-02-05T23:19:13.652Z,68.22
2023-02-05T23:21:46.745Z,79.45
2023-02-05T23:24:19.627Z,73.88
2023-02-05T23:26:53.768Z,66.80
2023-02-05T23:29:27.390Z,98.35
2023-02-05T23:32:00.283Z,99.35
2023-02-05T23:34:36.086Z,84.70
2023-02-05T23:37:09.848Z,72.72
2023-02-05T23:39:42.441Z,70.53
2023-02-05T23:42:15.235Z,67.60
2023-02-05T23:44:47.850Z,58.15
2023-02-05T23:47:20.725Z,62.28
2023-02-05T23:49:53.151Z,69.10
2023-02-05T23:52:26.076Z,76.50
2023-02-05T23:54:58.718Z,59.03
2023-02-05T23:57:31.565Z,73.72
